Terminal Aerodrome Forecast
Issued by NWS

Home | Current Version | Previous Version | Graphics & Text | Print | Product List | Glossary On
Versions: 1 2 3 4 5 6 7 8 9 10 11 12 13 14 15 16 17 18 19 20 21 22 23
000
FTUS43 KICT 151612 AAA
TAFHUT
TAF AMD
KHUT 151612Z 1516/1612 06006KT 4SM -FZDZ SCT005 OVC007
      TEMPO 1516/1519 2SM FZRA BR OVC005
     FM151900 06006KT 6SM -RADZ SCT005 OVC007
     FM160200 06008KT 5SM RA VCTS SCT005 OVC007CB=

USA.gov is the U.S. government's official web portal to all federal, state and local government web resources and services.